sensor_id;sensor_type;location;lat;lon;timestamp;P1;durP1;ratioP1;P2;durP2;ratioP2
17032;SDS011;63208;52.178;21.016;2022-09-09T00:02:09;5.23;;;4.50;;
17032;SDS011;63208;52.178;21.016;2022-09-09T00:04:42;5.47;;;4.13;;
17032;SDS011;63208;52.178;21.016;2022-09-09T00:07:19;6.90;;;4.43;;
17032;SDS011;63208;52.178;21.016;2022-09-09T00:09:53;7.03;;;4.80;;
17032;SDS011;63208;52.178;21.016;2022-09-09T00:12:36;7.30;;;4.80;;
17032;SDS011;63208;52.178;21.016;2022-09-09T00:15:16;8.43;;;5.30;;
17032;SDS011;63208;52.178;21.016;2022-09-09T00:17:47;9.77;;;5.57;;
17032;SDS011;63208;52.178;21.016;2022-09-09T00:20:20;9.33;;;5.80;;
17032;SDS011;63208;52.178;21.016;2022-09-09T00:22:55;7.90;;;5.13;;
17032;SDS011;63208;52.178;21.016;2022-09-09T00:25:32;8.03;;;5.40;;
17032;SDS011;63208;52.178;21.016;2022-09-09T00:28:09;8.97;;;5.00;;
17032;SDS011;63208;52.178;21.016;2022-09-09T00:30:43;7.93;;;5.77;;
17032;SDS011;63208;52.178;21.016;2022-09-09T00:33:13;8.10;;;5.70;;
17032;SDS011;63208;52.178;21.016;2022-09-09T00:35:44;10.97;;;5.90;;
17032;SDS011;63208;52.178;21.016;2022-09-09T00:38:13;9.20;;;5.63;;
17032;SDS011;63208;52.178;21.016;2022-09-09T00:40:45;8.50;;;5.63;;
17032;SDS011;63208;52.178;21.016;2022-09-09T00:43:23;9.70;;;5.80;;
17032;SDS011;63208;52.178;21.016;2022-09-09T00:45:56;9.43;;;6.30;;
17032;SDS011;63208;52.178;21.016;2022-09-09T00:48:41;18.20;;;6.50;;
17032;SDS011;63208;52.178;21.016;2022-09-09T00:51:21;8.33;;;6.37;;
17032;SDS011;63208;52.178;21.016;2022-09-09T00:53:58;10.77;;;5.97;;
17032;SDS011;63208;52.178;21.016;2022-09-09T00:56:37;10.77;;;6.10;;
17032;SDS011;63208;52.178;21.016;2022-09-09T00:59:16;9.80;;;6.10;;
17032;SDS011;63208;52.178;21.016;2022-09-09T01:01:51;10.33;;;6.27;;
17032;SDS011;63208;52.178;21.016;2022-09-09T01:04:21;10.17;;;6.07;;
17032;SDS011;63208;52.178;21.016;2022-09-09T01:06:57;9.97;;;6.20;;
17032;SDS011;63208;52.178;21.016;2022-09-09T01:09:32;10.90;;;6.40;;
17032;SDS011;63208;52.178;21.016;2022-09-09T01:12:12;9.67;;;6.57;;
17032;SDS011;63208;52.178;21.016;2022-09-09T01:14:44;11.33;;;6.40;;
17032;SDS011;63208;52.178;21.016;2022-09-09T01:17:17;12.70;;;6.83;;
17032;SDS011;63208;52.178;21.016;2022-09-09T01:19:55;13.53;;;6.73;;
17032;SDS011;63208;52.178;21.016;2022-09-09T01:22:32;12.23;;;6.80;;
17032;SDS011;63208;52.178;21.016;2022-09-09T01:25:20;9.60;;;6.37;;
17032;SDS011;63208;52.178;21.016;2022-09-09T01:27:54;10.90;;;6.53;;
17032;SDS011;63208;52.178;21.016;2022-09-09T01:30:23;10.57;;;6.73;;
17032;SDS011;63208;52.178;21.016;2022-09-09T01:32:53;14.87;;;6.47;;
17032;SDS011;63208;52.178;21.016;2022-09-09T01:35:27;11.13;;;7.27;;
17032;SDS011;63208;52.178;21.016;2022-09-09T01:38:02;11.13;;;6.80;;
17032;SDS011;63208;52.178;21.016;2022-09-09T01:40:29;8.50;;;6.70;;
17032;SDS011;63208;52.178;21.016;2022-09-09T01:42:57;9.53;;;6.60;;
17032;SDS011;63208;52.178;21.016;2022-09-09T01:45:24;11.70;;;6.90;;
17032;SDS011;63208;52.178;21.016;2022-09-09T01:47:51;9.97;;;6.57;;
17032;SDS011;63208;52.178;21.016;2022-09-09T01:50:19;9.17;;;6.47;;
17032;SDS011;63208;52.178;21.016;2022-09-09T01:52:48;10.10;;;7.43;;
17032;SDS011;63208;52.178;21.016;2022-09-09T01:55:19;9.57;;;6.87;;
17032;SDS011;63208;52.178;21.016;2022-09-09T01:57:56;10.77;;;7.13;;
17032;SDS011;63208;52.178;21.016;2022-09-09T02:00:32;10.00;;;6.67;;
17032;SDS011;63208;52.178;21.016;2022-09-09T02:03:05;11.77;;;7.40;;
17032;SDS011;63208;52.178;21.016;2022-09-09T02:05:39;11.63;;;7.70;;
17032;SDS011;63208;52.178;21.016;2022-09-09T02:08:10;9.70;;;7.03;;
17032;SDS011;63208;52.178;21.016;2022-09-09T02:10:42;11.37;;;7.40;;
17032;SDS011;63208;52.178;21.016;2022-09-09T02:13:16;8.70;;;6.63;;
17032;SDS011;63208;52.178;21.016;2022-09-09T02:15:45;9.57;;;7.23;;
17032;SDS011;63208;52.178;21.016;2022-09-09T02:18:17;9.83;;;7.43;;
17032;SDS011;63208;52.178;21.016;2022-09-09T02:20:49;11.37;;;7.63;;
17032;SDS011;63208;52.178;21.016;2022-09-09T02:23:18;12.53;;;7.10;;
17032;SDS011;63208;52.178;21.016;2022-09-09T02:25:46;11.40;;;7.67;;
17032;SDS011;63208;52.178;21.016;2022-09-09T02:28:18;10.13;;;7.07;;
17032;SDS011;63208;52.178;21.016;2022-09-09T02:30:49;12.27;;;7.77;;
17032;SDS011;63208;52.178;21.016;2022-09-09T02:33:20;11.93;;;7.83;;
17032;SDS011;63208;52.178;21.016;2022-09-09T02:35:50;11.10;;;7.90;;
17032;SDS011;63208;52.178;21.016;2022-09-09T02:38:18;13.40;;;8.50;;
17032;SDS011;63208;52.178;21.016;2022-09-09T02:40:48;11.73;;;7.90;;
17032;SDS011;63208;52.178;21.016;2022-09-09T02:43:14;14.47;;;8.77;;
17032;SDS011;63208;52.178;21.016;2022-09-09T02:45:44;10.57;;;7.70;;
17032;SDS011;63208;52.178;21.016;2022-09-09T02:48:20;10.90;;;8.50;;
17032;SDS011;63208;52.178;21.016;2022-09-09T02:50:53;12.07;;;7.60;;
17032;SDS011;63208;52.178;21.016;2022-09-09T02:53:32;10.93;;;7.53;;
17032;SDS011;63208;52.178;21.016;2022-09-09T02:56:08;10.33;;;7.77;;
17032;SDS011;63208;52.178;21.016;2022-09-09T02:58:40;11.37;;;7.83;;
17032;SDS011;63208;52.178;21.016;2022-09-09T03:01:09;13.83;;;7.57;;
17032;SDS011;63208;52.178;21.016;2022-09-09T03:03:36;12.60;;;7.47;;
17032;SDS011;63208;52.178;21.016;2022-09-09T03:06:03;11.87;;;7.63;;
17032;SDS011;63208;52.178;21.016;2022-09-09T03:08:30;10.83;;;7.33;;
17032;SDS011;63208;52.178;21.016;2022-09-09T03:10:58;11.80;;;7.57;;
17032;SDS011;63208;52.178;21.016;2022-09-09T03:13:26;11.67;;;7.63;;
17032;SDS011;63208;52.178;21.016;2022-09-09T03:15:53;11.27;;;7.47;;
17032;SDS011;63208;52.178;21.016;2022-09-09T03:18:21;9.90;;;7.30;;
17032;SDS011;63208;52.178;21.016;2022-09-09T03:20:48;10.87;;;7.20;;
17032;SDS011;63208;52.178;21.016;2022-09-09T03:23:16;10.97;;;7.40;;
17032;SDS011;63208;52.178;21.016;2022-09-09T03:25:46;10.30;;;7.77;;
17032;SDS011;63208;52.178;21.016;2022-09-09T03:28:14;10.57;;;7.33;;
17032;SDS011;63208;52.178;21.016;2022-09-09T03:30:40;9.83;;;6.83;;
17032;SDS011;63208;52.178;21.016;2022-09-09T03:33:07;10.17;;;7.43;;
17032;SDS011;63208;52.178;21.016;2022-09-09T03:35:36;10.03;;;7.13;;
17032;SDS011;63208;52.178;21.016;2022-09-09T03:38:02;11.03;;;7.10;;
17032;SDS011;63208;52.178;21.016;2022-09-09T03:40:29;9.77;;;6.73;;
17032;SDS011;63208;52.178;21.016;2022-09-09T03:42:57;10.03;;;7.27;;
17032;SDS011;63208;52.178;21.016;2022-09-09T03:45:24;10.53;;;7.30;;
17032;SDS011;63208;52.178;21.016;2022-09-09T03:47:51;8.80;;;6.60;;
17032;SDS011;63208;52.178;21.016;2022-09-09T03:50:19;9.80;;;6.97;;
17032;SDS011;63208;52.178;21.016;2022-09-09T03:52:47;10.33;;;7.33;;
17032;SDS011;63208;52.178;21.016;2022-09-09T03:55:14;9.33;;;7.00;;
17032;SDS011;63208;52.178;21.016;2022-09-09T03:57:41;11.00;;;6.93;;
17032;SDS011;63208;52.178;21.016;2022-09-09T04:00:08;9.47;;;7.03;;
17032;SDS011;63208;52.178;21.016;2022-09-09T04:02:36;8.57;;;6.87;;
17032;SDS011;63208;52.178;21.016;2022-09-09T04:05:04;8.73;;;6.90;;
17032;SDS011;63208;52.178;21.016;2022-09-09T04:07:31;9.50;;;7.10;;
17032;SDS011;63208;52.178;21.016;2022-09-09T04:10:00;8.47;;;6.90;;
17032;SDS011;63208;52.178;21.016;2022-09-09T04:12:27;9.17;;;6.83;;
17032;SDS011;63208;52.178;21.016;2022-09-09T04:14:53;7.50;;;6.57;;
17032;SDS011;63208;52.178;21.016;2022-09-09T04:17:20;8.60;;;7.07;;
17032;SDS011;63208;52.178;21.016;2022-09-09T04:19:47;9.03;;;7.57;;
17032;SDS011;63208;52.178;21.016;2022-09-09T04:22:14;12.27;;;7.40;;
17032;SDS011;63208;52.178;21.016;2022-09-09T04:24:41;10.20;;;6.63;;
17032;SDS011;63208;52.178;21.016;2022-09-09T04:27:09;8.63;;;7.10;;
17032;SDS011;63208;52.178;21.016;2022-09-09T04:29:37;7.97;;;6.63;;
17032;SDS011;63208;52.178;21.016;2022-09-09T04:32:04;8.43;;;6.60;;
17032;SDS011;63208;52.178;21.016;2022-09-09T04:34:31;11.97;;;7.70;;
17032;SDS011;63208;52.178;21.016;2022-09-09T04:36:58;8.33;;;7.07;;
17032;SDS011;63208;52.178;21.016;2022-09-09T04:39:25;7.77;;;6.27;;
17032;SDS011;63208;52.178;21.016;2022-09-09T04:41:52;9.73;;;6.53;;
17032;SDS011;63208;52.178;21.016;2022-09-09T04:44:20;7.87;;;6.40;;
17032;SDS011;63208;52.178;21.016;2022-09-09T04:46:47;6.43;;;5.83;;
17032;SDS011;63208;52.178;21.016;2022-09-09T04:49:14;7.03;;;5.90;;
17032;SDS011;63208;52.178;21.016;2022-09-09T04:51:41;8.03;;;6.40;;
17032;SDS011;63208;52.178;21.016;2022-09-09T04:54:08;8.33;;;6.20;;
17032;SDS011;63208;52.178;21.016;2022-09-09T04:56:35;7.07;;;5.30;;
17032;SDS011;63208;52.178;21.016;2022-09-09T04:59:02;7.47;;;6.17;;
17032;SDS011;63208;52.178;21.016;2022-09-09T05:01:30;7.07;;;6.37;;
17032;SDS011;63208;52.178;21.016;2022-09-09T05:03:57;9.17;;;5.93;;
17032;SDS011;63208;52.178;21.016;2022-09-09T05:06:24;6.87;;;6.03;;
17032;SDS011;63208;52.178;21.016;2022-09-09T05:08:51;7.63;;;5.70;;
17032;SDS011;63208;52.178;21.016;2022-09-09T05:11:19;6.83;;;5.60;;
17032;SDS011;63208;52.178;21.016;2022-09-09T05:13:48;7.40;;;6.27;;
17032;SDS011;63208;52.178;21.016;2022-09-09T05:16:16;7.60;;;5.93;;
17032;SDS011;63208;52.178;21.016;2022-09-09T05:18:45;5.93;;;5.33;;
17032;SDS011;63208;52.178;21.016;2022-09-09T05:21:13;6.43;;;5.30;;
17032;SDS011;63208;52.178;21.016;2022-09-09T05:23:41;6.20;;;5.47;;
17032;SDS011;63208;52.178;21.016;2022-09-09T05:26:09;6.33;;;5.43;;
17032;SDS011;63208;52.178;21.016;2022-09-09T05:28:39;6.97;;;5.30;;
17032;SDS011;63208;52.178;21.016;2022-09-09T05:31:06;7.17;;;5.30;;
17032;SDS011;63208;52.178;21.016;2022-09-09T05:33:36;7.10;;;5.53;;
17032;SDS011;63208;52.178;21.016;2022-09-09T05:36:07;6.27;;;5.60;;
17032;SDS011;63208;52.178;21.016;2022-09-09T05:38:35;6.17;;;5.57;;
17032;SDS011;63208;52.178;21.016;2022-09-09T05:41:03;6.63;;;5.40;;
17032;SDS011;63208;52.178;21.016;2022-09-09T05:43:30;6.20;;;5.33;;
17032;SDS011;63208;52.178;21.016;2022-09-09T05:46:01;5.90;;;5.13;;
17032;SDS011;63208;52.178;21.016;2022-09-09T05:48:29;6.90;;;5.30;;
17032;SDS011;63208;52.178;21.016;2022-09-09T05:50:57;5.00;;;4.53;;
17032;SDS011;63208;52.178;21.016;2022-09-09T05:53:26;6.10;;;5.30;;
17032;SDS011;63208;52.178;21.016;2022-09-09T05:56:00;6.53;;;5.27;;
17032;SDS011;63208;52.178;21.016;2022-09-09T05:58:29;6.87;;;5.60;;
17032;SDS011;63208;52.178;21.016;2022-09-09T06:01:00;5.87;;;5.27;;
17032;SDS011;63208;52.178;21.016;2022-09-09T06:03:28;6.30;;;5.50;;
17032;SDS011;63208;52.178;21.016;2022-09-09T06:05:58;6.70;;;5.20;;
17032;SDS011;63208;52.178;21.016;2022-09-09T06:08:27;6.00;;;5.40;;
17032;SDS011;63208;52.178;21.016;2022-09-09T06:11:00;6.27;;;5.63;;
17032;SDS011;63208;52.178;21.016;2022-09-09T06:13:28;6.73;;;6.13;;
17032;SDS011;63208;52.178;21.016;2022-09-09T06:15:56;9.80;;;6.37;;
17032;SDS011;63208;52.178;21.016;2022-09-09T06:18:23;9.03;;;6.57;;
17032;SDS011;63208;52.178;21.016;2022-09-09T06:20:54;6.07;;;5.57;;
17032;SDS011;63208;52.178;21.016;2022-09-09T06:23:21;6.80;;;6.10;;
17032;SDS011;63208;52.178;21.016;2022-09-09T06:25:50;6.53;;;5.83;;
17032;SDS011;63208;52.178;21.016;2022-09-09T06:28:17;6.50;;;5.90;;
17032;SDS011;63208;52.178;21.016;2022-09-09T06:30:44;6.83;;;6.13;;
17032;SDS011;63208;52.178;21.016;2022-09-09T06:33:11;8.27;;;6.80;;
17032;SDS011;63208;52.178;21.016;2022-09-09T06:35:38;7.47;;;6.47;;
17032;SDS011;63208;52.178;21.016;2022-09-09T06:38:04;8.27;;;6.53;;
17032;SDS011;63208;52.178;21.016;2022-09-09T06:40:33;8.23;;;7.20;;
17032;SDS011;63208;52.178;21.016;2022-09-09T06:43:01;7.60;;;6.57;;
17032;SDS011;63208;52.178;21.016;2022-09-09T06:45:28;8.63;;;6.87;;
17032;SDS011;63208;52.178;21.016;2022-09-09T06:47:56;8.57;;;7.63;;
17032;SDS011;63208;52.178;21.016;2022-09-09T06:50:23;7.93;;;7.20;;
17032;SDS011;63208;52.178;21.016;2022-09-09T06:52:50;8.80;;;7.50;;
17032;SDS011;63208;52.178;21.016;2022-09-09T06:55:17;11.83;;;7.63;;
17032;SDS011;63208;52.178;21.016;2022-09-09T06:57:44;9.27;;;7.53;;
17032;SDS011;63208;52.178;21.016;2022-09-09T07:00:13;9.47;;;7.63;;
17032;SDS011;63208;52.178;21.016;2022-09-09T07:02:40;8.20;;;7.40;;
17032;SDS011;63208;52.178;21.016;2022-09-09T07:05:07;10.53;;;8.17;;
17032;SDS011;63208;52.178;21.016;2022-09-09T07:07:35;9.13;;;8.03;;
17032;SDS011;63208;52.178;21.016;2022-09-09T07:10:02;9.77;;;8.40;;
17032;SDS011;63208;52.178;21.016;2022-09-09T07:12:30;8.17;;;7.37;;
17032;SDS011;63208;52.178;21.016;2022-09-09T07:14:57;11.23;;;7.90;;
17032;SDS011;63208;52.178;21.016;2022-09-09T07:17:25;10.30;;;8.70;;
17032;SDS011;63208;52.178;21.016;2022-09-09T07:19:54;9.83;;;8.30;;
17032;SDS011;63208;52.178;21.016;2022-09-09T07:22:21;9.87;;;8.87;;
17032;SDS011;63208;52.178;21.016;2022-09-09T07:24:49;11.50;;;8.80;;
17032;SDS011;63208;52.178;21.016;2022-09-09T07:27:16;10.63;;;9.03;;
17032;SDS011;63208;52.178;21.016;2022-09-09T07:29:43;10.87;;;8.90;;
17032;SDS011;63208;52.178;21.016;2022-09-09T07:32:10;10.30;;;9.27;;
17032;SDS011;63208;52.178;21.016;2022-09-09T07:34:38;9.73;;;8.70;;
17032;SDS011;63208;52.178;21.016;2022-09-09T07:37:05;9.57;;;8.67;;
17032;SDS011;63208;52.178;21.016;2022-09-09T07:39:33;11.50;;;9.13;;
17032;SDS011;63208;52.178;21.016;2022-09-09T07:41:59;11.00;;;9.60;;
17032;SDS011;63208;52.178;21.016;2022-09-09T07:44:26;10.00;;;8.90;;
17032;SDS011;63208;52.178;21.016;2022-09-09T07:46:53;11.53;;;9.80;;
17032;SDS011;63208;52.178;21.016;2022-09-09T07:49:20;13.80;;;10.03;;
17032;SDS011;63208;52.178;21.016;2022-09-09T07:51:48;12.00;;;10.03;;
17032;SDS011;63208;52.178;21.016;2022-09-09T07:54:16;10.97;;;9.70;;
17032;SDS011;63208;52.178;21.016;2022-09-09T07:56:45;12.37;;;9.90;;
17032;SDS011;63208;52.178;21.016;2022-09-09T07:59:14;10.80;;;9.57;;
17032;SDS011;63208;52.178;21.016;2022-09-09T08:01:42;12.70;;;9.80;;
17032;SDS011;63208;52.178;21.016;2022-09-09T08:04:11;13.60;;;10.03;;
17032;SDS011;63208;52.178;21.016;2022-09-09T08:06:41;11.97;;;9.73;;
17032;SDS011;63208;52.178;21.016;2022-09-09T08:09:10;10.20;;;9.13;;
17032;SDS011;63208;52.178;21.016;2022-09-09T08:11:37;11.77;;;9.90;;
17032;SDS011;63208;52.178;21.016;2022-09-09T08:14:05;12.00;;;10.00;;
17032;SDS011;63208;52.178;21.016;2022-09-09T08:16:34;11.90;;;9.73;;
17032;SDS011;63208;52.178;21.016;2022-09-09T08:19:03;11.10;;;9.87;;
17032;SDS011;63208;52.178;21.016;2022-09-09T08:21:31;12.33;;;9.93;;
17032;SDS011;63208;52.178;21.016;2022-09-09T08:23:59;11.37;;;10.27;;
17032;SDS011;63208;52.178;21.016;2022-09-09T08:26:29;13.20;;;10.27;;
17032;SDS011;63208;52.178;21.016;2022-09-09T08:28:59;13.93;;;10.53;;
17032;SDS011;63208;52.178;21.016;2022-09-09T08:31:29;14.03;;;10.77;;
17032;SDS011;63208;52.178;21.016;2022-09-09T08:33:58;16.67;;;10.73;;
17032;SDS011;63208;52.178;21.016;2022-09-09T08:36:28;15.20;;;10.63;;
17032;SDS011;63208;52.178;21.016;2022-09-09T08:38:56;14.70;;;10.93;;
17032;SDS011;63208;52.178;21.016;2022-09-09T08:44:40;13.13;;;10.30;;
17032;SDS011;63208;52.178;21.016;2022-09-09T08:47:17;14.23;;;10.57;;
17032;SDS011;63208;52.178;21.016;2022-09-09T08:49:59;17.07;;;11.50;;
17032;SDS011;63208;52.178;21.016;2022-09-09T08:52:39;14.20;;;10.87;;
17032;SDS011;63208;52.178;21.016;2022-09-09T08:55:16;13.90;;;10.80;;
17032;SDS011;63208;52.178;21.016;2022-09-09T08:57:52;11.70;;;10.30;;
17032;SDS011;63208;52.178;21.016;2022-09-09T09:00:22;13.30;;;10.57;;
17032;SDS011;63208;52.178;21.016;2022-09-09T09:02:56;13.77;;;11.20;;
17032;SDS011;63208;52.178;21.016;2022-09-09T09:05:35;14.43;;;11.93;;
17032;SDS011;63208;52.178;21.016;2022-09-09T09:08:09;16.57;;;12.37;;
17032;SDS011;63208;52.178;21.016;2022-09-09T09:10:45;16.07;;;11.77;;
17032;SDS011;63208;52.178;21.016;2022-09-09T09:13:17;14.30;;;11.43;;
17032;SDS011;63208;52.178;21.016;2022-09-09T09:15:48;18.37;;;12.40;;
17032;SDS011;63208;52.178;21.016;2022-09-09T09:18:18;16.80;;;13.27;;
17032;SDS011;63208;52.178;21.016;2022-09-09T09:20:49;15.73;;;12.43;;
17032;SDS011;63208;52.178;21.016;2022-09-09T09:23:21;19.20;;;12.93;;
17032;SDS011;63208;52.178;21.016;2022-09-09T09:25:50;18.90;;;12.77;;
17032;SDS011;63208;52.178;21.016;2022-09-09T09:28:24;17.97;;;13.63;;
17032;SDS011;63208;52.178;21.016;2022-09-09T09:30:55;16.27;;;13.17;;
17032;SDS011;63208;52.178;21.016;2022-09-09T09:33:25;18.27;;;13.17;;
17032;SDS011;63208;52.178;21.016;2022-09-09T09:35:53;17.10;;;13.13;;
17032;SDS011;63208;52.178;21.016;2022-09-09T09:38:21;19.00;;;13.30;;
17032;SDS011;63208;52.178;21.016;2022-09-09T09:40:50;20.73;;;14.00;;
17032;SDS011;63208;52.178;21.016;2022-09-09T09:43:25;17.67;;;13.70;;
17032;SDS011;63208;52.178;21.016;2022-09-09T09:45:54;18.83;;;13.33;;
17032;SDS011;63208;52.178;21.016;2022-09-09T09:48:23;20.83;;;14.97;;
17032;SDS011;63208;52.178;21.016;2022-09-09T09:50:51;20.30;;;14.30;;
17032;SDS011;63208;52.178;21.016;2022-09-09T09:53:21;24.30;;;15.23;;
17032;SDS011;63208;52.178;21.016;2022-09-09T09:55:52;21.40;;;14.87;;
17032;SDS011;63208;52.178;21.016;2022-09-09T09:58:21;20.00;;;14.13;;
17032;SDS011;63208;52.178;21.016;2022-09-09T10:00:50;22.10;;;14.87;;
17032;SDS011;63208;52.178;21.016;2022-09-09T10:03:20;21.20;;;14.33;;
17032;SDS011;63208;52.178;21.016;2022-09-09T10:05:49;22.13;;;14.83;;
17032;SDS011;63208;52.178;21.016;2022-09-09T10:08:17;23.17;;;14.93;;
17032;SDS011;63208;52.178;21.016;2022-09-09T10:10:57;21.40;;;14.63;;
17032;SDS011;63208;52.178;21.016;2022-09-09T10:13:41;21.33;;;15.20;;
17032;SDS011;63208;52.178;21.016;2022-09-09T10:16:21;21.60;;;15.13;;
17032;SDS011;63208;52.178;21.016;2022-09-09T10:18:57;21.60;;;15.77;;
17032;SDS011;63208;52.178;21.016;2022-09-09T10:21:32;22.60;;;15.37;;
17032;SDS011;63208;52.178;21.016;2022-09-09T10:27:11;28.03;;;17.30;;
17032;SDS011;63208;52.178;21.016;2022-09-09T10:29:59;23.80;;;16.10;;
17032;SDS011;63208;52.178;21.016;2022-09-09T10:32:39;28.20;;;16.50;;
17032;SDS011;63208;52.178;21.016;2022-09-09T10:38:12;22.70;;;16.23;;
17032;SDS011;63208;52.178;21.016;2022-09-09T10:40:43;22.47;;;16.73;;
17032;SDS011;63208;52.178;21.016;2022-09-09T10:43:19;25.13;;;16.67;;
17032;SDS011;63208;52.178;21.016;2022-09-09T10:45:55;26.90;;;17.10;;
17032;SDS011;63208;52.178;21.016;2022-09-09T10:48:34;26.07;;;17.97;;
17032;SDS011;63208;52.178;21.016;2022-09-09T10:51:21;28.00;;;17.47;;
17032;SDS011;63208;52.178;21.016;2022-09-09T10:54:02;27.40;;;17.77;;
17032;SDS011;63208;52.178;21.016;2022-09-09T10:56:51;26.73;;;17.67;;
17032;SDS011;63208;52.178;21.016;2022-09-09T10:59:23;28.43;;;17.90;;
17032;SDS011;63208;52.178;21.016;2022-09-09T11:01:53;29.37;;;18.87;;
17032;SDS011;63208;52.178;21.016;2022-09-09T11:04:27;29.97;;;17.97;;
17032;SDS011;63208;52.178;21.016;2022-09-09T11:06:59;25.97;;;17.93;;
17032;SDS011;63208;52.178;21.016;2022-09-09T11:09:36;28.43;;;18.20;;
17032;SDS011;63208;52.178;21.016;2022-09-09T11:12:07;27.80;;;18.13;;
17032;SDS011;63208;52.178;21.016;2022-09-09T11:14:41;27.53;;;18.47;;
17032;SDS011;63208;52.178;21.016;2022-09-09T11:17:12;30.30;;;18.97;;
17032;SDS011;63208;52.178;21.016;2022-09-09T11:19:44;27.90;;;18.53;;
17032;SDS011;63208;52.178;21.016;2022-09-09T11:22:15;27.57;;;18.67;;
17032;SDS011;63208;52.178;21.016;2022-09-09T11:24:48;29.07;;;18.00;;
17032;SDS011;63208;52.178;21.016;2022-09-09T11:27:20;28.67;;;18.90;;
17032;SDS011;63208;52.178;21.016;2022-09-09T11:33:04;31.53;;;19.43;;
17032;SDS011;63208;52.178;21.016;2022-09-09T11:35:50;33.37;;;19.30;;
17032;SDS011;63208;52.178;21.016;2022-09-09T11:38:29;33.40;;;19.37;;
17032;SDS011;63208;52.178;21.016;2022-09-09T11:41:03;30.93;;;19.70;;
17032;SDS011;63208;52.178;21.016;2022-09-09T11:43:38;32.17;;;20.17;;
17032;SDS011;63208;52.178;21.016;2022-09-09T11:46:07;30.83;;;19.13;;
17032;SDS011;63208;52.178;21.016;2022-09-09T11:48:35;33.57;;;21.00;;
17032;SDS011;63208;52.178;21.016;2022-09-09T11:51:07;30.93;;;19.60;;
17032;SDS011;63208;52.178;21.016;2022-09-09T11:53:36;34.13;;;20.37;;
17032;SDS011;63208;52.178;21.016;2022-09-09T11:56:22;39.77;;;21.20;;
17032;SDS011;63208;52.178;21.016;2022-09-09T11:58:55;34.83;;;19.53;;
17032;SDS011;63208;52.178;21.016;2022-09-09T12:01:26;33.70;;;20.53;;
17032;SDS011;63208;52.178;21.016;2022-09-09T12:04:20;36.63;;;20.87;;
17032;SDS011;63208;52.178;21.016;2022-09-09T12:07:03;33.77;;;20.70;;
17032;SDS011;63208;52.178;21.016;2022-09-09T12:09:33;33.77;;;21.17;;
17032;SDS011;63208;52.178;21.016;2022-09-09T12:17:47;34.17;;;21.70;;
17032;SDS011;63208;52.178;21.016;2022-09-09T12:20:17;36.60;;;21.63;;
17032;SDS011;63208;52.178;21.016;2022-09-09T12:22:59;33.50;;;22.13;;
17032;SDS011;63208;52.178;21.016;2022-09-09T12:25:44;33.13;;;21.87;;
17032;SDS011;63208;52.178;21.016;2022-09-09T12:28:32;35.07;;;21.03;;
17032;SDS011;63208;52.178;21.016;2022-09-09T12:31:08;37.37;;;22.77;;
17032;SDS011;63208;52.178;21.016;2022-09-09T12:33:42;37.50;;;22.20;;
17032;SDS011;63208;52.178;21.016;2022-09-09T12:36:12;39.33;;;22.40;;
17032;SDS011;63208;52.178;21.016;2022-09-09T12:38:44;38.03;;;22.73;;
17032;SDS011;63208;52.178;21.016;2022-09-09T12:41:17;41.40;;;23.10;;
17032;SDS011;63208;52.178;21.016;2022-09-09T12:43:47;38.13;;;22.87;;
17032;SDS011;63208;52.178;21.016;2022-09-09T12:46:19;42.47;;;23.87;;
17032;SDS011;63208;52.178;21.016;2022-09-09T12:48:52;39.90;;;23.83;;
17032;SDS011;63208;52.178;21.016;2022-09-09T12:51:21;36.10;;;23.73;;
17032;SDS011;63208;52.178;21.016;2022-09-09T12:53:54;37.40;;;22.67;;
17032;SDS011;63208;52.178;21.016;2022-09-09T12:56:23;37.90;;;22.27;;
17032;SDS011;63208;52.178;21.016;2022-09-09T12:58:53;38.77;;;22.90;;
17032;SDS011;63208;52.178;21.016;2022-09-09T13:01:22;37.23;;;22.27;;
17032;SDS011;63208;52.178;21.016;2022-09-09T13:03:51;36.63;;;23.50;;
17032;SDS011;63208;52.178;21.016;2022-09-09T13:06:20;37.60;;;21.57;;
17032;SDS011;63208;52.178;21.016;2022-09-09T13:08:48;38.87;;;22.70;;
17032;SDS011;63208;52.178;21.016;2022-09-09T13:11:18;39.77;;;22.67;;
17032;SDS011;63208;52.178;21.016;2022-09-09T13:13:52;36.27;;;21.60;;
17032;SDS011;63208;52.178;21.016;2022-09-09T13:16:21;39.57;;;22.13;;
17032;SDS011;63208;52.178;21.016;2022-09-09T13:18:51;36.53;;;22.43;;
17032;SDS011;63208;52.178;21.016;2022-09-09T13:21:30;33.70;;;21.20;;
17032;SDS011;63208;52.178;21.016;2022-09-09T13:23:58;38.07;;;21.87;;
17032;SDS011;63208;52.178;21.016;2022-09-09T13:26:29;35.17;;;20.47;;
17032;SDS011;63208;52.178;21.016;2022-09-09T13:29:07;38.63;;;21.60;;
17032;SDS011;63208;52.178;21.016;2022-09-09T13:31:42;39.57;;;22.67;;
17032;SDS011;63208;52.178;21.016;2022-09-09T13:34:10;37.47;;;21.73;;
17032;SDS011;63208;52.178;21.016;2022-09-09T13:36:39;40.50;;;20.63;;
17032;SDS011;63208;52.178;21.016;2022-09-09T13:39:13;35.37;;;21.00;;
17032;SDS011;63208;52.178;21.016;2022-09-09T13:41:45;36.23;;;21.17;;
17032;SDS011;63208;52.178;21.016;2022-09-09T13:44:17;34.47;;;20.90;;
17032;SDS011;63208;52.178;21.016;2022-09-09T13:46:58;41.80;;;21.27;;
17032;SDS011;63208;52.178;21.016;2022-09-09T13:49:27;35.57;;;20.97;;
17032;SDS011;63208;52.178;21.016;2022-09-09T13:52:03;39.37;;;21.40;;
17032;SDS011;63208;52.178;21.016;2022-09-09T13:54:32;39.23;;;21.53;;
17032;SDS011;63208;52.178;21.016;2022-09-09T13:57:01;38.83;;;21.33;;
17032;SDS011;63208;52.178;21.016;2022-09-09T13:59:29;39.37;;;22.07;;
17032;SDS011;63208;52.178;21.016;2022-09-09T14:01:56;41.17;;;20.97;;
17032;SDS011;63208;52.178;21.016;2022-09-09T14:04:24;35.07;;;20.67;;
17032;SDS011;63208;52.178;21.016;2022-09-09T14:06:51;40.27;;;21.43;;
17032;SDS011;63208;52.178;21.016;2022-09-09T14:09:18;39.73;;;20.80;;
17032;SDS011;63208;52.178;21.016;2022-09-09T14:11:45;36.73;;;20.23;;
17032;SDS011;63208;52.178;21.016;2022-09-09T14:14:13;35.43;;;19.90;;
17032;SDS011;63208;52.178;21.016;2022-09-09T14:16:40;38.77;;;20.53;;
17032;SDS011;63208;52.178;21.016;2022-09-09T14:19:07;36.47;;;20.53;;
17032;SDS011;63208;52.178;21.016;2022-09-09T14:21:34;37.17;;;20.57;;
17032;SDS011;63208;52.178;21.016;2022-09-09T14:24:01;36.90;;;20.73;;
17032;SDS011;63208;52.178;21.016;2022-09-09T14:26:28;36.33;;;20.33;;
17032;SDS011;63208;52.178;21.016;2022-09-09T14:28:55;41.27;;;20.03;;
17032;SDS011;63208;52.178;21.016;2022-09-09T14:31:24;38.13;;;20.07;;
17032;SDS011;63208;52.178;21.016;2022-09-09T14:33:51;36.17;;;19.77;;
17032;SDS011;63208;52.178;21.016;2022-09-09T14:36:18;38.27;;;19.87;;
17032;SDS011;63208;52.178;21.016;2022-09-09T14:38:45;36.37;;;20.87;;
17032;SDS011;63208;52.178;21.016;2022-09-09T14:41:13;36.27;;;20.27;;
17032;SDS011;63208;52.178;21.016;2022-09-09T14:43:41;40.13;;;21.23;;
17032;SDS011;63208;52.178;21.016;2022-09-09T14:46:09;38.23;;;20.63;;
17032;SDS011;63208;52.178;21.016;2022-09-09T14:48:38;39.67;;;20.53;;
17032;SDS011;63208;52.178;21.016;2022-09-09T14:51:06;40.00;;;19.97;;
17032;SDS011;63208;52.178;21.016;2022-09-09T14:53:34;36.63;;;20.30;;
17032;SDS011;63208;52.178;21.016;2022-09-09T14:56:03;41.57;;;20.80;;
17032;SDS011;63208;52.178;21.016;2022-09-09T14:58:33;38.10;;;20.90;;
17032;SDS011;63208;52.178;21.016;2022-09-09T15:01:03;37.77;;;20.80;;